createdAt,value
2023-01-19T00:00:56.591Z,1.90
2023-01-19T00:03:23.514Z,1.70
2023-01-19T00:05:50.366Z,1.75
2023-01-19T00:08:17.643Z,1.75
2023-01-19T00:10:51.288Z,2.63
2023-01-19T00:13:18.591Z,2.00
2023-01-19T00:15:45.433Z,2.00
2023-01-19T00:18:14.471Z,2.35
2023-01-19T00:20:41.531Z,2.10
2023-01-19T00:23:09.593Z,1.85
2023-01-19T00:25:42.555Z,1.33
2023-01-19T00:28:14.194Z,1.52
2023-01-19T00:30:42.183Z,1.90
2023-01-19T00:33:10.265Z,1.67
2023-01-19T00:35:37.149Z,1.48
2023-01-19T00:38:04.026Z,1.42
2023-01-19T00:40:30.878Z,1.20
2023-01-19T00:42:58.225Z,1.65
2023-01-19T00:45:25.457Z,1.50
2023-01-19T00:47:57.237Z,1.50
2023-01-19T00:50:25.921Z,1.30
2023-01-19T00:52:54.198Z,1.60
2023-01-19T00:55:21.732Z,1.60
2023-01-19T00:57:49.033Z,1.70
2023-01-19T01:00:19.846Z,1.00
2023-01-19T01:02:48.158Z,1.17
2023-01-19T01:05:15.430Z,1.10
2023-01-19T01:07:44.519Z,1.10
2023-01-19T01:10:14.790Z,1.10
2023-01-19T01:12:42.159Z,1.30
2023-01-19T01:15:23.414Z,1.17
2023-01-19T01:17:53.056Z,1.40
2023-01-19T01:20:27.114Z,1.13
2023-01-19T01:22:54.389Z,1.20
2023-01-19T01:25:23.621Z,1.42
2023-01-19T01:27:50.706Z,1.35
2023-01-19T01:30:17.683Z,1.38
2023-01-19T01:32:44.652Z,1.90
2023-01-19T01:35:12.591Z,1.30
2023-01-19T01:37:40.620Z,1.77
2023-01-19T01:40:08.031Z,1.20
2023-01-19T01:42:34.966Z,1.10
2023-01-19T01:45:22.229Z,1.20
2023-01-19T01:47:50.570Z,1.02
2023-01-19T01:50:26.780Z,0.70
2023-01-19T01:53:06.480Z,0.77
2023-01-19T01:55:38.372Z,0.77
2023-01-19T01:58:07.541Z,0.70
2023-01-19T02:00:54.419Z,0.90
2023-01-19T02:03:24.760Z,0.50
2023-01-19T02:05:53.700Z,0.43
2023-01-19T02:08:52.983Z,0.55
2023-01-19T02:11:38.747Z,0.63
2023-01-19T02:14:06.375Z,0.70
2023-01-19T02:16:35.045Z,0.73
2023-01-19T02:19:01.947Z,0.60
2023-01-19T02:21:43.070Z,1.00
2023-01-19T02:24:10.973Z,1.08
2023-01-19T02:26:44.397Z,1.23
2023-01-19T02:29:17.993Z,1.23
2023-01-19T02:31:48.194Z,0.70
2023-01-19T02:34:17.952Z,1.02
2023-01-19T02:36:52.787Z,0.90
2023-01-19T02:39:27.093Z,0.63
2023-01-19T02:41:59.311Z,0.90
2023-01-19T02:44:27.794Z,0.68
2023-01-19T02:46:57.341Z,0.60
2023-01-19T02:49:27.609Z,0.70
2023-01-19T02:51:54.737Z,0.50
2023-01-19T02:54:33.817Z,0.50
2023-01-19T02:57:32.304Z,0.60
2023-01-19T03:00:01.876Z,0.60
2023-01-19T03:02:44.204Z,1.65
2023-01-19T03:05:17.428Z,1.00
2023-01-19T03:08:25.152Z,1.55
2023-01-19T03:11:00.789Z,0.98
2023-01-19T03:13:52.113Z,0.90
2023-01-19T03:16:28.020Z,0.65
2023-01-19T03:18:58.360Z,0.60
2023-01-19T03:21:27.752Z,0.52
2023-01-19T03:24:00.464Z,0.98
2023-01-19T03:26:30.893Z,0.60
2023-01-19T03:29:02.682Z,0.80
2023-01-19T03:31:33.275Z,0.75
2023-01-19T03:34:06.803Z,0.63
2023-01-19T03:36:49.196Z,0.75
2023-01-19T03:39:23.018Z,1.13
2023-01-19T03:41:59.925Z,1.02
2023-01-19T03:44:29.183Z,1.38
2023-01-19T03:46:58.500Z,1.98
2023-01-19T03:49:25.957Z,1.17
2023-01-19T03:51:55.832Z,0.93
2023-01-19T03:54:23.086Z,0.75
2023-01-19T03:56:49.792Z,0.52
2023-01-19T03:59:17.619Z,1.27
2023-01-19T04:01:44.625Z,1.20
2023-01-19T04:04:11.683Z,1.15
2023-01-19T04:06:38.724Z,0.93
2023-01-19T04:09:06.054Z,0.80
2023-01-19T04:11:32.777Z,0.88
2023-01-19T04:13:59.714Z,0.70
2023-01-19T04:16:26.500Z,0.52
2023-01-19T04:18:53.543Z,0.60
2023-01-19T04:21:22.829Z,0.55
2023-01-19T04:23:50.378Z,0.43
2023-01-19T04:26:17.103Z,0.35
2023-01-19T04:28:43.786Z,0.40
2023-01-19T04:31:10.856Z,0.40
2023-01-19T04:33:37.733Z,0.38
2023-01-19T04:36:04.835Z,0.52
2023-01-19T04:38:31.830Z,0.47
2023-01-19T04:40:58.584Z,0.40
2023-01-19T04:43:25.413Z,0.47
2023-01-19T04:45:52.316Z,0.52
2023-01-19T04:48:19.689Z,0.70
2023-01-19T04:50:47.338Z,1.10
2023-01-19T04:53:14.599Z,1.77
2023-01-19T04:55:41.337Z,2.28
2023-01-19T04:58:08.416Z,1.75
2023-01-19T05:00:35.623Z,1.60
2023-01-19T05:03:02.807Z,0.80
2023-01-19T05:05:29.947Z,0.90
2023-01-19T05:07:56.841Z,1.25
2023-01-19T05:10:23.978Z,0.90
2023-01-19T05:12:51.320Z,0.38
2023-01-19T05:15:18.100Z,0.38
2023-01-19T05:17:45.218Z,0.65
2023-01-19T05:20:15.685Z,0.60
2023-01-19T05:22:43.414Z,0.30
2023-01-19T05:25:10.227Z,0.32
2023-01-19T05:27:38.745Z,0.40
2023-01-19T05:30:06.537Z,1.40
2023-01-19T05:32:33.370Z,0.80
2023-01-19T05:35:00.200Z,0.38
2023-01-19T05:37:27.050Z,0.35
2023-01-19T05:39:54.219Z,1.13
2023-01-19T05:42:21.273Z,1.30
2023-01-19T05:44:48.037Z,1.58
2023-01-19T05:47:15.029Z,1.80
2023-01-19T05:49:41.831Z,2.25
2023-01-19T05:52:08.667Z,1.80
2023-01-19T05:54:35.617Z,1.42
2023-01-19T05:57:03.131Z,1.42
2023-01-19T05:59:29.913Z,1.08
2023-01-19T06:01:57.243Z,1.08
2023-01-19T06:04:24.152Z,1.30
2023-01-19T06:06:51.607Z,1.27
2023-01-19T06:09:18.652Z,1.67
2023-01-19T06:11:46.420Z,1.85
2023-01-19T06:14:13.704Z,1.70
2023-01-19T06:16:40.904Z,1.60
2023-01-19T06:19:07.690Z,1.25
2023-01-19T06:21:34.540Z,1.02
2023-01-19T06:24:01.397Z,1.40
2023-01-19T06:26:28.256Z,1.02
2023-01-19T06:28:55.395Z,0.82
2023-01-19T06:31:22.550Z,0.73
2023-01-19T06:33:49.948Z,0.90
2023-01-19T06:36:16.727Z,0.90
2023-01-19T06:38:44.003Z,0.93
2023-01-19T06:41:12.463Z,1.17
2023-01-19T06:43:39.296Z,1.00
2023-01-19T06:46:06.240Z,1.27
2023-01-19T06:48:33.083Z,1.58
2023-01-19T06:51:00.038Z,1.23
2023-01-19T06:53:28.442Z,1.48
2023-01-19T06:55:59.763Z,1.52
2023-01-19T06:58:28.375Z,1.70
2023-01-19T07:00:56.335Z,1.48
2023-01-19T07:03:23.827Z,1.58
2023-01-19T07:05:53.753Z,1.45
2023-01-19T07:08:20.887Z,1.25
2023-01-19T07:11:25.674Z,2.00
2023-01-19T07:13:35.923Z,1.60
2023-01-19T07:16:11.852Z,1.50
2023-01-19T07:18:39.894Z,0.60
2023-01-19T07:21:07.318Z,0.85
2023-01-19T07:23:35.089Z,1.13
2023-01-19T07:26:02.010Z,1.02
2023-01-19T07:28:29.616Z,0.43
2023-01-19T07:30:57.068Z,0.60
2023-01-19T07:33:25.077Z,1.27
2023-01-19T07:35:52.628Z,1.33
2023-01-19T07:38:20.395Z,1.17
2023-01-19T07:40:47.307Z,0.98
2023-01-19T07:43:15.028Z,1.10
2023-01-19T07:45:43.190Z,0.77
2023-01-19T07:48:10.027Z,2.58
2023-01-19T07:50:36.826Z,2.75
2023-01-19T07:53:08.603Z,4.35
2023-01-19T07:55:35.943Z,5.07
2023-01-19T07:58:06.643Z,1.67
2023-01-19T08:00:35.367Z,1.63
2023-01-19T08:03:03.750Z,0.90
2023-01-19T08:05:31.667Z,1.02
2023-01-19T08:07:59.021Z,1.48
2023-01-19T08:10:27.412Z,2.22
2023-01-19T08:12:55.263Z,2.05
2023-01-19T08:15:24.208Z,1.52
2023-01-19T08:17:59.050Z,0.82
2023-01-19T08:20:27.123Z,1.13
2023-01-19T08:23:01.623Z,1.77
2023-01-19T08:25:37.408Z,2.35
2023-01-19T08:28:06.493Z,1.15
2023-01-19T08:30:33.521Z,2.20
2023-01-19T08:33:08.380Z,1.58
2023-01-19T08:35:43.329Z,1.00
2023-01-19T08:38:11.148Z,0.95
2023-01-19T08:40:40.431Z,1.33
2023-01-19T08:43:09.963Z,1.17
2023-01-19T08:45:48.185Z,1.45
2023-01-19T08:48:17.295Z,1.42
2023-01-19T08:50:46.228Z,0.98
2023-01-19T08:53:13.633Z,2.33
2023-01-19T08:55:40.851Z,2.03
2023-01-19T08:58:08.956Z,2.53
2023-01-19T09:00:41.109Z,2.00
2023-01-19T09:03:11.475Z,2.30
2023-01-19T09:05:38.874Z,2.75
2023-01-19T09:08:09.411Z,2.45
2023-01-19T09:10:38.115Z,2.15
2023-01-19T09:13:08.353Z,2.00
2023-01-19T09:15:37.697Z,3.10
2023-01-19T09:18:07.259Z,1.70
2023-01-19T09:20:36.179Z,1.65
2023-01-19T09:23:03.267Z,1.88
2023-01-19T09:25:30.105Z,2.45
2023-01-19T09:27:56.928Z,2.92
2023-01-19T09:30:23.679Z,10.52
2023-01-19T09:32:50.609Z,4.45
2023-01-19T09:35:17.516Z,2.80
2023-01-19T09:37:47.926Z,1.92
2023-01-19T09:40:15.918Z,2.28
2023-01-19T09:42:47.349Z,2.53
2023-01-19T09:45:36.128Z,2.40
2023-01-19T09:48:13.374Z,1.25
2023-01-19T09:50:46.851Z,4.20
2023-01-19T09:54:01.483Z,4.63
2023-01-19T09:56:30.223Z,5.78
2023-01-19T09:58:58.501Z,2.55
2023-01-19T10:01:46.593Z,2.03
2023-01-19T10:04:25.508Z,2.45
2023-01-19T10:07:04.018Z,4.80
2023-01-19T10:09:47.627Z,2.15
2023-01-19T10:12:32.788Z,2.33
2023-01-19T10:15:04.213Z,2.08
2023-01-19T10:17:44.377Z,2.40
2023-01-19T10:20:18.062Z,1.35
2023-01-19T10:22:48.794Z,2.03
2023-01-19T10:25:20.509Z,2.20
2023-01-19T10:27:47.820Z,1.90
2023-01-19T10:30:24.524Z,3.53
2023-01-19T10:32:51.791Z,3.83
2023-01-19T10:35:27.260Z,3.70
2023-01-19T10:37:58.701Z,2.50
2023-01-19T10:40:47.798Z,3.35
2023-01-19T10:43:46.492Z,4.80
2023-01-19T10:46:37.348Z,5.70
2023-01-19T10:49:05.688Z,2.05
2023-01-19T10:51:32.757Z,2.00
2023-01-19T10:54:02.379Z,4.70
2023-01-19T10:56:35.280Z,2.30
2023-01-19T10:59:05.895Z,2.22
2023-01-19T11:01:36.983Z,2.90
2023-01-19T11:04:27.952Z,3.10
2023-01-19T11:07:14.016Z,3.88
2023-01-19T11:09:41.018Z,3.17
2023-01-19T11:12:16.846Z,3.85
2023-01-19T11:14:43.781Z,2.92
2023-01-19T11:17:27.919Z,2.35
2023-01-19T11:20:03.023Z,4.03
2023-01-19T11:22:33.974Z,2.63
2023-01-19T11:25:03.077Z,3.10
2023-01-19T11:27:32.077Z,2.70
2023-01-19T11:30:16.983Z,3.00
2023-01-19T11:32:43.798Z,2.58
2023-01-19T11:35:32.517Z,2.83
2023-01-19T11:38:19.570Z,2.45
2023-01-19T11:40:53.292Z,3.83
2023-01-19T11:43:23.310Z,3.53
2023-01-19T11:45:50.638Z,2.85
2023-01-19T11:48:29.247Z,3.05
2023-01-19T11:51:00.546Z,2.40
2023-01-19T11:53:30.823Z,3.10
2023-01-19T11:56:06.805Z,4.65
2023-01-19T11:58:39.178Z,3.00
2023-01-19T12:01:31.436Z,2.95
2023-01-19T12:03:58.168Z,1.88
2023-01-19T12:06:34.241Z,1.80
2023-01-19T12:09:10.566Z,1.40
2023-01-19T12:12:08.935Z,1.10
2023-01-19T12:14:43.768Z,0.68
2023-01-19T12:17:24.959Z,0.70
2023-01-19T12:20:28.155Z,1.00
2023-01-19T12:23:17.454Z,1.98
2023-01-19T12:25:54.950Z,3.20
2023-01-19T12:28:31.766Z,4.40
2023-01-19T12:31:01.137Z,3.60
2023-01-19T12:33:38.502Z,2.13
2023-01-19T12:36:35.607Z,2.00
2023-01-19T12:39:04.459Z,0.98
2023-01-19T12:41:38.932Z,0.93
2023-01-19T12:44:12.001Z,0.65
2023-01-19T12:46:43.512Z,2.20
2023-01-19T12:49:16.295Z,1.70
2023-01-19T12:51:43.774Z,2.15
2023-01-19T12:54:23.490Z,1.98
2023-01-19T12:56:58.619Z,4.25
2023-01-19T12:59:27.444Z,1.83
2023-01-19T13:02:22.255Z,4.47
2023-01-19T13:05:32.507Z,1.40
2023-01-19T13:08:02.412Z,1.17
2023-01-19T13:11:03.057Z,1.27
2023-01-19T13:13:42.297Z,2.20
2023-01-19T13:16:18.290Z,2.40
2023-01-19T13:18:45.126Z,2.63
2023-01-19T13:21:12.623Z,2.90
2023-01-19T13:23:51.429Z,2.40
2023-01-19T13:26:21.966Z,2.40
2023-01-19T13:28:55.700Z,2.35
2023-01-19T13:31:24.431Z,4.75
2023-01-19T13:33:55.036Z,3.08
2023-01-19T13:36:38.480Z,3.25
2023-01-19T13:39:18.697Z,4.00
2023-01-19T13:41:47.316Z,3.50
2023-01-19T13:44:30.339Z,4.40
2023-01-19T13:46:59.400Z,6.60
2023-01-19T13:49:36.423Z,5.18
2023-01-19T13:52:06.283Z,3.30
2023-01-19T13:54:33.085Z,3.13
2023-01-19T13:56:59.803Z,2.65
2023-01-19T13:59:26.594Z,2.03
2023-01-19T14:01:54.310Z,1.92
2023-01-19T14:04:30.791Z,1.77
2023-01-19T14:07:01.623Z,2.90
2023-01-19T14:09:28.940Z,2.38
2023-01-19T14:12:05.164Z,3.17
2023-01-19T14:14:32.693Z,2.10
2023-01-19T14:16:59.699Z,1.80
2023-01-19T14:19:26.552Z,1.48
2023-01-19T14:22:04.331Z,1.83
2023-01-19T14:24:33.289Z,2.03
2023-01-19T14:27:10.010Z,1.67
2023-01-19T14:29:40.555Z,3.63
2023-01-19T14:32:10.062Z,2.35
2023-01-19T14:34:42.851Z,2.70
2023-01-19T14:37:37.471Z,2.13
2023-01-19T14:40:17.517Z,2.20
2023-01-19T14:42:50.181Z,10.50
2023-01-19T14:45:21.371Z,4.32
2023-01-19T14:48:19.291Z,5.43
2023-01-19T14:51:02.112Z,6.40
2023-01-19T14:53:36.699Z,2.67
2023-01-19T14:56:05.980Z,1.63
2023-01-19T14:58:34.917Z,1.90
2023-01-19T15:01:02.846Z,2.40
2023-01-19T15:03:46.187Z,1.65
2023-01-19T15:06:20.125Z,2.22
2023-01-19T15:08:47.378Z,3.50
2023-01-19T15:11:31.908Z,3.40
2023-01-19T15:13:59.303Z,2.22
2023-01-19T15:16:29.143Z,1.95
2023-01-19T15:18:56.140Z,1.83
2023-01-19T15:21:23.816Z,1.80
2023-01-19T15:23:50.797Z,2.03
2023-01-19T15:26:23.054Z,2.10
2023-01-19T15:28:50.603Z,1.75
2023-01-19T15:31:20.727Z,2.20
2023-01-19T15:33:47.666Z,1.90
2023-01-19T15:36:18.319Z,2.40
2023-01-19T15:38:46.046Z,3.20
2023-01-19T15:41:20.776Z,3.38
2023-01-19T15:43:49.369Z,3.20
2023-01-19T15:46:18.784Z,4.00
2023-01-19T15:48:45.539Z,3.30
2023-01-19T15:51:17.103Z,4.30
2023-01-19T15:53:45.207Z,3.75
2023-01-19T15:56:19.671Z,3.67
2023-01-19T15:58:46.877Z,4.32
2023-01-19T16:01:16.201Z,4.35
2023-01-19T16:03:43.432Z,4.90
2023-01-19T16:06:11.174Z,3.75
2023-01-19T16:08:38.512Z,4.95
2023-01-19T16:11:15.320Z,4.47
2023-01-19T16:13:46.243Z,5.80
2023-01-19T16:16:20.985Z,7.40
2023-01-19T16:18:48.067Z,7.68
2023-01-19T16:21:14.893Z,8.75
2023-01-19T16:23:42.047Z,8.32
2023-01-19T16:26:22.993Z,9.23
2023-01-19T16:28:49.835Z,7.68
2023-01-19T16:31:16.738Z,8.88
2023-01-19T16:33:45.346Z,8.00
2023-01-19T16:36:42.618Z,10.10
2023-01-19T16:39:12.907Z,6.63
2023-01-19T16:41:40.242Z,7.22
2023-01-19T16:44:07.363Z,8.75
2023-01-19T16:46:36.853Z,9.30
2023-01-19T16:49:06.193Z,7.93
2023-01-19T16:51:33.675Z,8.07
2023-01-19T16:54:00.505Z,6.43
2023-01-19T16:56:27.391Z,5.22
2023-01-19T16:58:58.435Z,5.85
2023-01-19T17:01:27.386Z,6.28
2023-01-19T17:03:55.485Z,10.82
2023-01-19T17:06:23.614Z,9.80
2023-01-19T17:08:52.031Z,8.18
2023-01-19T17:11:30.634Z,9.60
2023-01-19T17:14:06.200Z,9.27
2023-01-19T17:16:34.283Z,7.57
2023-01-19T17:19:02.982Z,16.75
2023-01-19T17:21:29.802Z,10.40
2023-01-19T17:23:57.959Z,11.73
2023-01-19T17:26:25.973Z,11.90
2023-01-19T17:28:52.719Z,8.75
2023-01-19T17:31:22.024Z,8.77
2023-01-19T17:33:50.527Z,9.15
2023-01-19T17:36:22.874Z,8.20
2023-01-19T17:38:50.292Z,6.55
2023-01-19T17:41:19.576Z,8.82
2023-01-19T17:43:47.325Z,12.63
2023-01-19T17:46:14.144Z,25.48
2023-01-19T17:48:41.076Z,30.17
2023-01-19T17:51:11.373Z,26.23
2023-01-19T17:53:39.978Z,24.77
2023-01-19T17:56:12.364Z,24.73
2023-01-19T17:58:39.822Z,30.50
2023-01-19T18:01:22.113Z,32.03
2023-01-19T18:03:49.117Z,29.88
2023-01-19T18:06:16.719Z,24.20
2023-01-19T18:08:46.280Z,13.88
2023-01-19T18:11:14.898Z,11.40
2023-01-19T18:13:46.128Z,11.95
2023-01-19T18:16:15.943Z,13.13
2023-01-19T18:18:44.260Z,16.13
2023-01-19T18:21:14.300Z,14.55
2023-01-19T18:23:46.012Z,13.48
2023-01-19T18:26:16.201Z,12.82
2023-01-19T18:28:43.098Z,11.38
2023-01-19T18:31:12.128Z,13.85
2023-01-19T18:33:39.147Z,16.77
2023-01-19T18:36:06.472Z,16.30
2023-01-19T18:38:33.672Z,16.88
2023-01-19T18:41:10.257Z,16.30
2023-01-19T18:43:37.932Z,16.38
2023-01-19T18:46:04.982Z,26.15
2023-01-19T18:48:31.965Z,29.55
2023-01-19T18:51:03.339Z,24.17
2023-01-19T18:53:32.245Z,23.15
2023-01-19T18:56:01.924Z,19.88
2023-01-19T18:58:30.050Z,19.30
2023-01-19T19:00:57.421Z,17.38
2023-01-19T19:03:24.414Z,22.95
2023-01-19T19:05:53.845Z,21.40
2023-01-19T19:08:20.917Z,25.95
2023-01-19T19:10:47.904Z,28.98
2023-01-19T19:13:16.799Z,29.05
2023-01-19T19:15:44.470Z,27.45
2023-01-19T19:18:13.964Z,28.33
2023-01-19T19:20:43.251Z,29.35
2023-01-19T19:23:13.011Z,27.50
2023-01-19T19:25:39.891Z,22.88
2023-01-19T19:28:07.083Z,19.13
2023-01-19T19:30:35.700Z,20.75
2023-01-19T19:33:02.604Z,19.05
2023-01-19T19:35:29.447Z,19.08
2023-01-19T19:37:57.827Z,18.25
2023-01-19T19:40:26.631Z,17.80
2023-01-19T19:42:53.591Z,20.80
2023-01-19T19:45:22.285Z,19.08
2023-01-19T19:48:00.704Z,23.40
2023-01-19T19:50:28.091Z,25.63
2023-01-19T19:52:54.914Z,25.60
2023-01-19T19:55:21.821Z,21.42
2023-01-19T19:57:48.673Z,13.02
2023-01-19T20:00:16.216Z,11.82
2023-01-19T20:02:43.040Z,10.68
2023-01-19T20:05:10.016Z,9.50
2023-01-19T20:07:39.133Z,10.05
2023-01-19T20:10:06.423Z,12.65
2023-01-19T20:12:33.531Z,13.75
2023-01-19T20:15:00.440Z,29.20
2023-01-19T20:17:27.285Z,21.27
2023-01-19T20:19:54.223Z,23.27
2023-01-19T20:22:21.106Z,18.98
2023-01-19T20:24:48.157Z,16.15
2023-01-19T20:27:15.396Z,15.85
2023-01-19T20:29:43.204Z,14.20
2023-01-19T20:32:32.810Z,13.45
2023-01-19T20:35:00.259Z,13.68
2023-01-19T20:37:27.369Z,12.43
2023-01-19T20:39:54.499Z,14.27
2023-01-19T20:42:21.453Z,14.70
2023-01-19T20:44:49.777Z,11.55
2023-01-19T20:47:16.837Z,11.88
2023-01-19T20:49:44.205Z,15.32
2023-01-19T20:52:11.249Z,15.10
2023-01-19T20:54:39.936Z,23.33
2023-01-19T20:57:06.824Z,24.95
2023-01-19T20:59:36.952Z,24.20
2023-01-19T21:02:06.459Z,21.00
2023-01-19T21:04:33.650Z,20.67
2023-01-19T21:07:00.485Z,20.33
2023-01-19T21:09:27.258Z,20.02
2023-01-19T21:11:55.917Z,21.15
2023-01-19T21:14:24.392Z,19.95
2023-01-19T21:16:51.419Z,21.50
2023-01-19T21:19:18.447Z,23.30
2023-01-19T21:21:45.306Z,22.63
2023-01-19T21:24:12.162Z,19.27
2023-01-19T21:26:39.262Z,18.83
2023-01-19T21:29:06.056Z,20.10
2023-01-19T21:31:32.938Z,19.65
2023-01-19T21:33:59.875Z,20.17
2023-01-19T21:36:27.006Z,16.45
2023-01-19T21:39:00.375Z,15.25
2023-01-19T21:41:28.431Z,15.90
2023-01-19T21:43:55.319Z,15.63
2023-01-19T21:46:29.634Z,12.40
2023-01-19T21:49:01.780Z,16.30
2023-01-19T21:51:30.305Z,10.00
2023-01-19T21:53:59.820Z,9.60
2023-01-19T21:56:44.902Z,7.82
2023-01-19T21:59:16.068Z,6.57
2023-01-19T22:01:44.969Z,5.75
2023-01-19T22:04:12.595Z,5.60
2023-01-19T22:06:39.753Z,6.03
2023-01-19T22:09:07.527Z,8.65
2023-01-19T22:11:34.449Z,7.03
2023-01-19T22:14:01.317Z,5.82
2023-01-19T22:16:29.572Z,5.38
2023-01-19T22:18:59.545Z,3.80
2023-01-19T22:21:30.432Z,4.32
2023-01-19T22:23:59.298Z,3.95
2023-01-19T22:26:27.767Z,5.20
2023-01-19T22:28:56.606Z,5.88
2023-01-19T22:31:25.284Z,7.68
2023-01-19T22:33:53.138Z,9.32
2023-01-19T22:36:30.548Z,9.98
2023-01-19T22:38:59.721Z,6.47
2023-01-19T22:41:42.022Z,4.07
2023-01-19T22:44:13.122Z,5.50
2023-01-19T22:46:40.082Z,3.17
2023-01-19T22:49:08.273Z,3.78
2023-01-19T22:51:35.918Z,4.57
2023-01-19T22:54:03.881Z,3.58
2023-01-19T22:56:32.758Z,5.22
2023-01-19T22:59:00.302Z,7.03
2023-01-19T23:01:31.541Z,5.57
2023-01-19T23:06:30.629Z,2.85
2023-01-19T23:09:00.087Z,3.35
2023-01-19T23:11:29.882Z,3.15
2023-01-19T23:13:58.156Z,4.00
2023-01-19T23:16:25.148Z,4.80
2023-01-19T23:18:56.911Z,5.43
2023-01-19T23:21:26.426Z,5.97
2023-01-19T23:23:56.653Z,5.95
2023-01-19T23:26:24.265Z,7.15
2023-01-19T23:28:56.533Z,6.05
2023-01-19T23:31:23.536Z,5.80
2023-01-19T23:33:52.100Z,5.55
2023-01-19T23:36:20.451Z,7.40
2023-01-19T23:38:55.539Z,6.85
2023-01-19T23:41:23.610Z,6.22
2023-01-19T23:43:50.794Z,6.63
2023-01-19T23:46:19.106Z,5.88
2023-01-19T23:48:46.827Z,7.57
2023-01-19T23:51:16.603Z,6.82
2023-01-19T23:53:43.620Z,7.25
2023-01-19T23:56:33.544Z,6.40
